createdAt,value
2022-08-28T00:00:22.266Z,10.65
2022-08-28T00:01:25.835Z,7.57
2022-08-28T00:02:28.982Z,7.20
2022-08-28T00:03:32.657Z,7.53
2022-08-28T00:04:35.925Z,7.28
2022-08-28T00:05:40.510Z,4.60
2022-08-28T00:06:42.569Z,4.30
2022-08-28T00:07:47.930Z,4.03
2022-08-28T00:08:50.213Z,8.50
2022-08-28T00:09:53.288Z,8.85
2022-08-28T00:10:55.367Z,6.03
2022-08-28T00:11:58.593Z,4.05
2022-08-28T00:13:00.836Z,5.68
2022-08-28T00:14:04.401Z,6.05
2022-08-28T00:15:10.097Z,11.82
2022-08-28T00:16:18.027Z,5.63
2022-08-28T00:17:21.475Z,7.60
2022-08-28T00:18:24.785Z,9.48
2022-08-28T00:19:26.918Z,7.07
2022-08-28T00:20:31.190Z,5.30
2022-08-28T00:21:33.461Z,5.90
2022-08-28T00:22:38.178Z,4.55
2022-08-28T00:23:42.758Z,3.38
2022-08-28T00:24:46.257Z,3.28
2022-08-28T00:25:48.361Z,3.28
2022-08-28T00:27:08.854Z,3.75
2022-08-28T00:28:24.285Z,2.30
2022-08-28T00:29:26.564Z,2.58
2022-08-28T00:30:32.294Z,3.60
2022-08-28T00:31:34.938Z,3.38
2022-08-28T00:32:39.381Z,2.50
2022-08-28T00:33:43.282Z,2.35
2022-08-28T00:34:46.330Z,2.97
2022-08-28T00:35:49.413Z,6.60
2022-08-28T00:36:52.463Z,1.67
2022-08-28T00:37:55.291Z,2.20
2022-08-28T00:39:00.880Z,2.17
2022-08-28T00:40:03.743Z,3.67
2022-08-28T00:41:06.909Z,1.70
2022-08-28T00:42:09.014Z,2.72
2022-08-28T00:43:22.725Z,3.05
2022-08-28T00:44:26.762Z,3.05
2022-08-28T00:45:30.974Z,1.95
2022-08-28T00:46:33.372Z,2.20
2022-08-28T00:47:36.510Z,1.95
2022-08-28T00:48:40.316Z,1.92
2022-08-28T00:49:48.981Z,2.60
2022-08-28T00:51:09.473Z,1.50
2022-08-28T00:52:15.222Z,1.95
2022-08-28T00:53:19.611Z,2.25
2022-08-28T00:54:22.662Z,1.60
2022-08-28T00:55:28.591Z,3.95
2022-08-28T00:56:33.026Z,1.98
2022-08-28T00:57:41.381Z,2.05
2022-08-28T00:58:46.086Z,2.20
2022-08-28T00:59:49.160Z,2.40
2022-08-28T01:00:52.687Z,2.00
2022-08-28T01:01:57.816Z,2.78
2022-08-28T01:03:00.650Z,1.90
2022-08-28T01:04:06.178Z,2.15
2022-08-28T01:05:09.673Z,2.13
2022-08-28T01:06:16.109Z,2.30
2022-08-28T01:07:18.796Z,2.45
2022-08-28T01:08:22.918Z,3.03
2022-08-28T01:09:29.329Z,2.80
2022-08-28T01:10:34.534Z,2.80
2022-08-28T01:11:36.697Z,2.67
2022-08-28T01:12:39.997Z,2.33
2022-08-28T01:13:46.590Z,3.38
2022-08-28T01:14:54.577Z,2.22
2022-08-28T01:15:58.138Z,2.40
2022-08-28T01:17:02.438Z,2.75
2022-08-28T01:18:09.317Z,2.83
2022-08-28T01:19:18.317Z,2.60
2022-08-28T01:20:24.137Z,2.47
2022-08-28T01:21:30.796Z,3.10
2022-08-28T01:22:38.022Z,2.60
2022-08-28T01:23:51.528Z,2.55
2022-08-28T01:24:57.147Z,2.85
2022-08-28T01:26:00.362Z,2.35
2022-08-28T01:27:05.109Z,2.38
2022-08-28T01:28:10.561Z,3.65
2022-08-28T01:29:14.445Z,2.75
2022-08-28T01:30:21.507Z,2.55
2022-08-28T01:31:25.211Z,2.80
2022-08-28T01:32:32.009Z,2.85
2022-08-28T01:33:35.169Z,2.63
2022-08-28T01:34:37.365Z,2.60
2022-08-28T01:35:43.683Z,2.60
2022-08-28T01:36:48.506Z,2.45
2022-08-28T01:37:51.660Z,2.00
2022-08-28T01:39:01.012Z,2.05
2022-08-28T01:40:05.267Z,2.30
2022-08-28T01:41:08.146Z,2.97
2022-08-28T01:42:11.292Z,2.10
2022-08-28T01:43:15.521Z,2.17
2022-08-28T01:44:25.689Z,2.60
2022-08-28T01:45:27.730Z,2.80
2022-08-28T01:46:32.137Z,3.10
2022-08-28T01:47:34.354Z,2.25
2022-08-28T01:48:41.623Z,2.50
2022-08-28T01:49:43.803Z,2.60
2022-08-28T01:50:46.936Z,2.42
2022-08-28T01:51:49.889Z,1.98
2022-08-28T01:52:55.340Z,2.53
2022-08-28T01:53:59.324Z,2.20
2022-08-28T01:55:05.117Z,2.30
2022-08-28T01:56:11.173Z,2.83
2022-08-28T01:57:14.533Z,3.22
2022-08-28T01:58:20.454Z,2.20
2022-08-28T01:59:23.861Z,2.50
2022-08-28T02:00:27.585Z,2.00
2022-08-28T02:01:30.934Z,1.90
2022-08-28T02:02:33.052Z,1.75
2022-08-28T02:03:36.065Z,2.15
2022-08-28T02:04:38.295Z,3.17
2022-08-28T02:05:41.983Z,2.10
2022-08-28T02:06:44.085Z,2.38
2022-08-28T02:07:47.138Z,2.47
2022-08-28T02:08:51.073Z,2.80
2022-08-28T02:09:55.912Z,3.88
2022-08-28T02:10:58.063Z,2.20
2022-08-28T02:12:01.213Z,2.60
2022-08-28T02:13:05.786Z,2.40
2022-08-28T02:14:08.900Z,1.92
2022-08-28T02:15:11.613Z,2.25
2022-08-28T02:16:14.718Z,2.95
2022-08-28T02:17:16.834Z,2.35
2022-08-28T02:18:19.981Z,2.75
2022-08-28T02:19:22.398Z,2.40
2022-08-28T02:20:25.942Z,4.97
2022-08-28T02:21:28.297Z,3.92
2022-08-28T02:22:31.346Z,2.33
2022-08-28T02:23:33.418Z,2.47
2022-08-28T02:24:37.096Z,2.10
2022-08-28T02:25:40.817Z,2.53
2022-08-28T02:26:44.470Z,2.40
2022-08-28T02:27:46.546Z,2.75
2022-08-28T02:28:49.944Z,2.78
2022-08-28T02:29:52.042Z,1.90
2022-08-28T02:30:55.190Z,2.20
2022-08-28T02:31:57.307Z,2.17
2022-08-28T02:33:00.383Z,3.05
2022-08-28T02:34:02.866Z,2.47
2022-08-28T02:35:06.789Z,2.47
2022-08-28T02:36:16.273Z,2.22
2022-08-28T02:37:20.546Z,2.78
2022-08-28T02:38:22.637Z,2.85
2022-08-28T02:39:25.840Z,2.92
2022-08-28T02:40:28.400Z,2.40
2022-08-28T02:41:32.994Z,2.70
2022-08-28T02:42:35.122Z,2.33
2022-08-28T02:43:38.265Z,2.72
2022-08-28T02:44:40.317Z,3.15
2022-08-28T02:45:43.401Z,3.53
2022-08-28T02:46:45.531Z,3.03
2022-08-28T02:47:49.412Z,2.95
2022-08-28T02:48:51.490Z,2.45
2022-08-28T02:49:54.544Z,3.28
2022-08-28T02:51:01.312Z,2.85
2022-08-28T02:52:06.749Z,3.17
2022-08-28T02:53:08.969Z,2.63
2022-08-28T02:54:12.014Z,2.80
2022-08-28T02:55:18.413Z,2.70
2022-08-28T02:56:21.489Z,3.22
2022-08-28T02:57:25.605Z,3.60
2022-08-28T02:58:31.921Z,2.50
2022-08-28T02:59:35.035Z,2.63
2022-08-28T03:00:38.126Z,2.50
2022-08-28T03:01:40.300Z,3.33
2022-08-28T03:02:45.617Z,2.20
2022-08-28T03:03:47.742Z,2.75
2022-08-28T03:04:51.020Z,2.47
2022-08-28T03:05:53.580Z,2.60
2022-08-28T03:06:56.642Z,2.92
2022-08-28T03:07:59.003Z,2.60
2022-08-28T03:09:02.287Z,2.25
2022-08-28T03:10:07.117Z,3.25
2022-08-28T03:11:10.750Z,3.78
2022-08-28T03:12:13.204Z,2.97
2022-08-28T03:13:26.848Z,3.38
2022-08-28T03:14:29.454Z,2.20
2022-08-28T03:15:32.518Z,2.72
2022-08-28T03:16:34.612Z,2.60
2022-08-28T03:17:41.232Z,2.70
2022-08-28T03:18:44.139Z,3.20
2022-08-28T03:19:47.187Z,2.67
2022-08-28T03:20:49.217Z,2.97
2022-08-28T03:21:52.370Z,2.80
2022-08-28T03:23:13.393Z,2.70
2022-08-28T03:24:15.752Z,2.53
2022-08-28T03:25:19.398Z,2.85
2022-08-28T03:26:21.867Z,2.47
2022-08-28T03:27:24.909Z,2.90
2022-08-28T03:28:30.598Z,2.60
2022-08-28T03:29:33.769Z,3.42
2022-08-28T03:30:35.877Z,3.17
2022-08-28T03:31:39.139Z,2.97
2022-08-28T03:32:41.201Z,3.28
2022-08-28T03:33:44.782Z,3.10
2022-08-28T03:34:46.965Z,3.30
2022-08-28T03:35:50.453Z,3.92
2022-08-28T03:36:53.511Z,3.20
2022-08-28T03:37:55.997Z,3.35
2022-08-28T03:39:01.764Z,3.00
2022-08-28T03:40:05.332Z,3.35
2022-08-28T03:41:11.965Z,2.80
2022-08-28T03:42:14.046Z,3.83
2022-08-28T03:43:19.490Z,3.22
2022-08-28T03:44:23.938Z,2.88
2022-08-28T03:45:26.049Z,2.78
2022-08-28T03:46:32.715Z,3.25
2022-08-28T03:47:36.121Z,3.55
2022-08-28T03:48:42.198Z,3.05
2022-08-28T03:49:46.893Z,2.90
2022-08-28T03:50:50.181Z,3.10
2022-08-28T03:51:54.366Z,5.25
2022-08-28T03:52:57.431Z,3.35
2022-08-28T03:54:00.700Z,2.83
2022-08-28T03:55:03.797Z,3.17
2022-08-28T03:56:06.957Z,3.67
2022-08-28T03:57:10.013Z,3.38
2022-08-28T03:58:19.030Z,4.22
2022-08-28T03:59:26.647Z,3.10
2022-08-28T04:00:34.621Z,3.97
2022-08-28T04:01:38.311Z,3.83
2022-08-28T04:02:41.014Z,3.15
2022-08-28T04:03:44.346Z,4.28
2022-08-28T04:04:47.637Z,4.25
2022-08-28T04:05:51.768Z,4.13
2022-08-28T04:06:53.877Z,3.95
2022-08-28T04:07:57.606Z,3.45
2022-08-28T04:09:00.299Z,4.13
2022-08-28T04:10:04.506Z,3.60
2022-08-28T04:11:07.041Z,3.55
2022-08-28T04:12:10.581Z,4.28
2022-08-28T04:13:14.702Z,3.60
2022-08-28T04:14:17.800Z,4.10
2022-08-28T04:15:21.658Z,3.83
2022-08-28T04:16:24.981Z,3.72
2022-08-28T04:17:27.082Z,3.63
2022-08-28T04:18:31.676Z,2.85
2022-08-28T04:19:34.344Z,3.08
2022-08-28T04:20:38.284Z,3.40
2022-08-28T04:21:40.314Z,3.15
2022-08-28T04:22:43.385Z,4.47
2022-08-28T04:23:48.096Z,3.60
2022-08-28T04:24:51.223Z,3.15
2022-08-28T04:25:53.779Z,2.90
2022-08-28T04:26:56.930Z,4.35
2022-08-28T04:27:58.998Z,5.50
2022-08-28T04:29:02.028Z,4.32
2022-08-28T04:30:05.246Z,4.32
2022-08-28T04:31:11.010Z,4.15
2022-08-28T04:32:13.441Z,4.07
2022-08-28T04:33:16.532Z,4.00
2022-08-28T04:34:18.609Z,3.75
2022-08-28T04:35:21.891Z,4.40
2022-08-28T04:36:23.985Z,4.10
2022-08-28T04:37:27.982Z,4.10
2022-08-28T04:38:30.622Z,4.40
2022-08-28T04:39:33.750Z,3.35
2022-08-28T04:40:40.187Z,4.20
2022-08-28T04:41:43.270Z,4.15
2022-08-28T04:42:45.352Z,4.22
2022-08-28T04:43:48.566Z,5.75
2022-08-28T04:44:50.641Z,4.55
2022-08-28T04:45:53.775Z,4.20
2022-08-28T04:46:57.269Z,4.65
2022-08-28T04:48:03.263Z,3.83
2022-08-28T04:49:07.754Z,4.90
2022-08-28T04:50:12.834Z,5.75
2022-08-28T04:51:15.089Z,4.60
2022-08-28T04:52:18.195Z,4.20
2022-08-28T04:53:20.611Z,4.90
2022-08-28T04:54:23.697Z,8.20
2022-08-28T04:55:48.461Z,5.13
2022-08-28T04:56:48.765Z,5.22
2022-08-28T04:57:51.213Z,7.03
2022-08-28T04:58:54.422Z,4.78
2022-08-28T04:59:56.954Z,5.32
2022-08-28T05:01:00.342Z,4.65
2022-08-28T05:02:04.190Z,4.90
2022-08-28T05:03:07.350Z,5.50
2022-08-28T05:04:10.884Z,4.50
2022-08-28T05:05:14.033Z,5.47
2022-08-28T05:06:16.691Z,4.30
2022-08-28T05:07:19.718Z,4.95
2022-08-28T05:08:23.637Z,4.78
2022-08-28T05:09:26.692Z,5.07
2022-08-28T05:10:28.819Z,4.30
2022-08-28T05:11:34.096Z,3.60
2022-08-28T05:12:37.173Z,6.57
2022-08-28T05:13:40.249Z,4.45
2022-08-28T05:14:42.296Z,3.67
2022-08-28T05:15:48.674Z,5.15
2022-08-28T05:16:52.859Z,5.57
2022-08-28T05:17:59.162Z,5.20
2022-08-28T05:19:02.517Z,4.85
2022-08-28T05:20:06.571Z,4.93
2022-08-28T05:21:14.426Z,4.93
2022-08-28T05:22:17.702Z,5.40
2022-08-28T05:23:19.757Z,5.97
2022-08-28T05:24:26.181Z,6.15
2022-08-28T05:25:28.234Z,5.10
2022-08-28T05:26:33.373Z,4.40
2022-08-28T05:27:41.845Z,6.15
2022-08-28T05:28:54.793Z,4.55
2022-08-28T05:30:05.935Z,6.13
2022-08-28T05:31:31.878Z,5.97
2022-08-28T05:32:42.172Z,6.80
2022-08-28T05:34:04.603Z,6.13
2022-08-28T05:35:09.498Z,6.45
2022-08-28T05:36:13.074Z,7.60
2022-08-28T05:37:19.455Z,5.93
2022-08-28T05:38:23.171Z,6.13
2022-08-28T05:39:25.297Z,7.45
2022-08-28T05:40:28.623Z,6.05
2022-08-28T05:41:31.694Z,6.20
2022-08-28T05:42:38.782Z,8.10
2022-08-28T05:43:41.204Z,8.98
2022-08-28T05:44:44.315Z,9.60
2022-08-28T05:45:57.833Z,7.03
2022-08-28T05:47:02.356Z,8.13
2022-08-28T05:48:04.693Z,7.25
2022-08-28T05:49:10.602Z,7.43
2022-08-28T05:50:13.714Z,7.70
2022-08-28T05:51:20.216Z,6.93
2022-08-28T05:52:25.897Z,7.63
2022-08-28T05:53:28.035Z,7.28
2022-08-28T05:54:31.959Z,9.38
2022-08-28T05:55:34.099Z,9.43
2022-08-28T05:56:39.079Z,9.10
2022-08-28T05:57:41.716Z,7.18
2022-08-28T05:58:45.246Z,8.73
2022-08-28T05:59:47.459Z,8.43
2022-08-28T06:00:50.744Z,8.85
2022-08-28T06:01:53.983Z,10.18
2022-08-28T06:02:56.122Z,7.10
2022-08-28T06:04:01.849Z,8.38
2022-08-28T06:05:07.204Z,6.75
2022-08-28T06:06:11.872Z,7.22
2022-08-28T06:07:15.633Z,6.20
2022-08-28T06:08:17.810Z,5.32
2022-08-28T06:09:28.726Z,6.25
2022-08-28T06:10:31.766Z,5.53
2022-08-28T06:11:38.307Z,7.43
2022-08-28T06:12:44.271Z,7.00
2022-08-28T06:13:50.516Z,8.30
2022-08-28T06:14:54.399Z,9.48
2022-08-28T06:15:57.876Z,8.95
2022-08-28T06:17:01.603Z,7.72
2022-08-28T06:18:04.018Z,7.95
2022-08-28T06:19:09.191Z,10.52
2022-08-28T06:20:13.765Z,10.15
2022-08-28T06:21:16.959Z,9.45
2022-08-28T06:22:19.315Z,11.50
2022-08-28T06:23:24.322Z,12.65
2022-08-28T06:24:27.985Z,11.55
2022-08-28T06:25:31.338Z,11.20
2022-08-28T06:26:36.126Z,13.90
2022-08-28T06:27:39.652Z,12.50
2022-08-28T06:28:42.140Z,15.25
2022-08-28T06:29:45.934Z,14.05
2022-08-28T06:31:18.047Z,14.07
2022-08-28T06:32:12.204Z,14.27
2022-08-28T06:33:16.788Z,12.30
2022-08-28T06:34:20.550Z,12.50
2022-08-28T06:35:24.109Z,14.18
2022-08-28T06:36:29.195Z,14.35
2022-08-28T06:37:31.325Z,14.02
2022-08-28T06:38:34.828Z,14.23
2022-08-28T06:39:37.203Z,14.38
2022-08-28T06:40:41.961Z,13.52
2022-08-28T06:41:45.299Z,14.55
2022-08-28T06:42:47.494Z,16.92
2022-08-28T06:43:50.704Z,15.70
2022-08-28T06:44:52.808Z,13.25
2022-08-28T06:45:57.682Z,14.50
2022-08-28T06:47:00.485Z,14.35
2022-08-28T06:48:04.472Z,14.73
2022-08-28T06:49:08.090Z,14.05
2022-08-28T06:50:12.679Z,13.38
2022-08-28T06:51:16.753Z,13.85
2022-08-28T06:52:20.003Z,14.88
2022-08-28T06:53:24.762Z,17.90
2022-08-28T06:54:31.081Z,13.45
2022-08-28T06:55:33.464Z,14.15
2022-08-28T06:56:36.686Z,15.15
2022-08-28T06:57:38.886Z,15.43
2022-08-28T06:58:49.934Z,16.77
2022-08-28T06:59:55.788Z,16.15
2022-08-28T07:01:03.638Z,17.02
2022-08-28T07:02:06.811Z,17.50
2022-08-28T07:03:10.236Z,16.52
2022-08-28T07:04:14.667Z,16.15
2022-08-28T07:05:18.568Z,15.80
2022-08-28T07:06:24.054Z,18.42
2022-08-28T07:07:32.666Z,17.27
2022-08-28T07:08:35.902Z,18.17
2022-08-28T07:09:39.100Z,17.92
2022-08-28T07:10:41.524Z,16.92
2022-08-28T07:11:47.352Z,17.65
2022-08-28T07:12:50.690Z,18.67
2022-08-28T07:13:54.544Z,18.90
2022-08-28T07:14:56.829Z,17.33
2022-08-28T07:16:00.987Z,16.13
2022-08-28T07:17:25.943Z,16.05
2022-08-28T07:18:29.318Z,18.25
2022-08-28T07:19:33.160Z,19.20
2022-08-28T07:20:35.473Z,17.73
2022-08-28T07:21:45.875Z,19.45
2022-08-28T07:22:51.468Z,19.02
2022-08-28T07:24:03.653Z,19.70
2022-08-28T07:25:07.511Z,20.23
2022-08-28T07:26:21.907Z,18.83
2022-08-28T07:32:14.728Z,17.90
2022-08-28T07:33:19.770Z,18.05
2022-08-28T07:34:35.359Z,17.95
2022-08-28T07:35:38.012Z,19.73
2022-08-28T07:36:47.713Z,19.15
2022-08-28T07:37:52.002Z,18.92
2022-08-28T07:39:04.797Z,18.92
2022-08-28T07:40:17.892Z,17.33
2022-08-28T07:41:29.296Z,16.55
2022-08-28T07:42:57.129Z,18.63
2022-08-28T07:44:32.697Z,18.45
2022-08-28T07:45:49.583Z,20.50
2022-08-28T07:47:02.957Z,18.52
2022-08-28T07:48:21.315Z,19.45
2022-08-28T07:49:56.355Z,18.88
2022-08-28T07:51:07.109Z,17.83
2022-08-28T07:52:16.971Z,17.73
2022-08-28T07:53:48.827Z,17.38
2022-08-28T07:55:22.723Z,19.75
2022-08-28T07:57:27.987Z,18.65
2022-08-28T07:59:26.389Z,18.50
2022-08-28T08:01:15.239Z,20.38
2022-08-28T08:04:50.048Z,19.35
2022-08-28T08:06:10.546Z,19.33
2022-08-28T08:07:35.155Z,24.42
2022-08-28T08:08:43.442Z,23.02
2022-08-28T08:10:37.429Z,19.00
2022-08-28T08:13:13.181Z,20.60
2022-08-28T08:14:17.397Z,19.20
2022-08-28T08:15:20.872Z,20.27
2022-08-28T08:16:28.223Z,19.27
2022-08-28T08:17:32.069Z,19.35
2022-08-28T08:18:34.693Z,16.65
2022-08-28T08:19:49.661Z,16.30
2022-08-28T08:21:55.305Z,15.27
2022-08-28T08:23:48.994Z,16.63
2022-08-28T08:25:36.039Z,16.13
2022-08-28T08:29:27.632Z,18.08
2022-08-28T08:31:37.034Z,19.17
2022-08-28T08:33:22.501Z,18.40
2022-08-28T08:34:54.040Z,16.50
2022-08-28T08:36:17.124Z,19.23
2022-08-28T08:39:35.355Z,15.38
2022-08-28T08:41:23.507Z,17.55
2022-08-28T08:43:02.849Z,19.48
2022-08-28T08:44:51.993Z,17.70
2022-08-28T08:46:05.094Z,19.67
2022-08-28T08:47:17.174Z,16.50
2022-08-28T08:48:27.761Z,19.88
2022-08-28T08:49:36.100Z,16.40
2022-08-28T08:50:39.312Z,15.85
2022-08-28T08:51:43.673Z,19.38
2022-08-28T08:52:53.448Z,19.27
2022-08-28T08:54:04.886Z,20.88
2022-08-28T08:55:25.370Z,20.88
2022-08-28T08:56:34.994Z,16.02
2022-08-28T08:57:39.621Z,17.92
2022-08-28T08:58:45.350Z,20.48
2022-08-28T08:59:48.758Z,19.90
2022-08-28T09:01:26.916Z,21.80
2022-08-28T09:03:14.284Z,20.25
2022-08-28T09:04:43.401Z,21.30
2022-08-28T09:05:56.417Z,21.20
2022-08-28T09:07:11.149Z,19.90
2022-08-28T09:08:25.523Z,20.88
2022-08-28T09:09:33.823Z,21.17
2022-08-28T09:10:42.666Z,20.73
2022-08-28T09:11:56.596Z,21.60
2022-08-28T09:13:06.124Z,18.90
2022-08-28T09:14:15.950Z,17.17
2022-08-28T09:15:31.108Z,19.20
2022-08-28T09:16:38.842Z,19.80
2022-08-28T09:17:46.348Z,19.00
2022-08-28T09:18:48.741Z,22.15
2022-08-28T09:19:52.790Z,21.73
2022-08-28T09:20:56.959Z,17.52
2022-08-28T09:22:00.247Z,17.40
2022-08-28T09:23:12.360Z,17.40
2022-08-28T09:24:22.295Z,16.98
2022-08-28T09:25:51.354Z,17.40
2022-08-28T09:26:58.460Z,19.75
2022-08-28T09:28:08.047Z,17.48
2022-08-28T09:29:18.373Z,18.45
2022-08-28T09:30:30.926Z,20.42
2022-08-28T09:31:36.403Z,18.65
2022-08-28T09:32:43.566Z,18.55
2022-08-28T09:33:47.509Z,19.35
2022-08-28T09:35:08.166Z,17.65
2022-08-28T09:36:28.273Z,19.33
2022-08-28T09:37:32.713Z,18.42
2022-08-28T09:38:36.562Z,17.58
2022-08-28T09:39:40.578Z,18.67
2022-08-28T09:41:00.967Z,16.83
2022-08-28T09:42:34.756Z,18.85
2022-08-28T09:43:37.860Z,20.50
2022-08-28T09:44:58.018Z,20.77
2022-08-28T09:46:06.148Z,19.58
2022-08-28T09:47:08.241Z,20.42
2022-08-28T09:48:21.658Z,19.27
2022-08-28T09:49:27.363Z,15.23
2022-08-28T09:50:33.703Z,17.40
2022-08-28T09:51:38.730Z,14.07
2022-08-28T09:52:42.180Z,15.35
2022-08-28T09:54:01.706Z,16.58
2022-08-28T09:55:04.270Z,14.85
2022-08-28T09:56:19.794Z,15.88
2022-08-28T09:57:23.271Z,14.15
2022-08-28T09:58:34.826Z,16.25
2022-08-28T09:59:36.958Z,18.52
2022-08-28T10:00:44.940Z,17.48
2022-08-28T10:01:59.979Z,17.88
2022-08-28T10:03:14.544Z,17.08
2022-08-28T10:04:54.949Z,19.25
2022-08-28T10:06:06.566Z,19.15
2022-08-28T10:07:16.274Z,17.40
2022-08-28T10:08:34.385Z,18.05
2022-08-28T10:09:47.730Z,16.50
2022-08-28T10:11:59.725Z,16.77
2022-08-28T10:14:08.193Z,18.85
2022-08-28T10:16:41.517Z,15.82
2022-08-28T10:18:14.215Z,18.50
2022-08-28T10:22:15.942Z,17.20
2022-08-28T10:25:03.920Z,16.05
2022-08-28T10:27:11.388Z,17.25
2022-08-28T10:29:31.673Z,17.77
2022-08-28T10:31:14.513Z,19.80
2022-08-28T10:33:24.292Z,19.35
2022-08-28T10:35:08.571Z,21.48
2022-08-28T10:36:34.037Z,16.38
2022-08-28T10:38:12.824Z,20.65
2022-08-28T10:40:12.491Z,20.08
2022-08-28T10:41:52.338Z,22.20
2022-08-28T10:43:51.314Z,19.65
2022-08-28T10:48:01.316Z,16.38
2022-08-28T10:50:16.825Z,19.27
2022-08-28T10:51:35.240Z,23.50
2022-08-28T10:52:45.253Z,22.35
2022-08-28T10:56:38.855Z,21.95
2022-08-28T10:58:00.127Z,22.60
2022-08-28T11:01:57.462Z,24.10
2022-08-28T11:03:34.681Z,22.77
2022-08-28T11:04:40.551Z,23.35
2022-08-28T11:05:53.882Z,24.83
2022-08-28T11:09:03.333Z,23.42
2022-08-28T11:11:58.420Z,23.48
2022-08-28T11:13:31.646Z,25.23
2022-08-28T11:15:39.082Z,24.95
2022-08-28T11:17:14.200Z,22.75
2022-08-28T11:19:12.400Z,23.95
2022-08-28T11:20:48.134Z,22.95
2022-08-28T11:22:44.463Z,22.02
2022-08-28T11:24:29.918Z,25.10
2022-08-28T11:25:52.461Z,23.88
2022-08-28T11:27:25.553Z,21.65
2022-08-28T11:29:13.839Z,23.73
2022-08-28T11:31:19.074Z,24.73
2022-08-28T11:33:37.335Z,27.05
2022-08-28T11:35:01.758Z,26.42
2022-08-28T11:37:08.810Z,28.05
2022-08-28T11:38:54.537Z,27.45
2022-08-28T11:40:25.820Z,24.63
2022-08-28T11:41:36.853Z,25.15
2022-08-28T11:43:02.266Z,23.90
2022-08-28T11:44:35.007Z,24.20
2022-08-28T11:46:24.033Z,24.77
2022-08-28T11:47:56.725Z,23.23
2022-08-28T11:49:35.715Z,25.70
2022-08-28T11:51:00.461Z,21.02
2022-08-28T11:52:15.954Z,26.23
2022-08-28T11:53:53.545Z,24.55
2022-08-28T11:55:10.984Z,26.15
2022-08-28T11:56:44.688Z,24.17
2022-08-28T11:59:35.140Z,21.90
2022-08-28T12:00:51.919Z,25.67
2022-08-28T12:01:54.568Z,25.33
2022-08-28T12:03:11.301Z,25.90
2022-08-28T12:04:15.375Z,18.58
2022-08-28T12:05:47.219Z,19.42
2022-08-28T12:07:16.064Z,22.42
2022-08-28T12:09:11.782Z,24.02
2022-08-28T12:10:49.167Z,26.42
2022-08-28T12:11:58.390Z,23.90
2022-08-28T12:13:03.845Z,25.88
2022-08-28T12:14:06.501Z,26.48
2022-08-28T12:15:11.042Z,24.05
2022-08-28T12:16:15.869Z,24.70
2022-08-28T12:17:31.219Z,25.30
2022-08-28T12:19:01.305Z,22.98
2022-08-28T12:20:15.083Z,22.25
2022-08-28T12:21:46.914Z,23.17
2022-08-28T12:23:00.788Z,21.02
2022-08-28T12:24:16.998Z,23.90
2022-08-28T12:25:40.653Z,22.38
2022-08-28T12:27:19.135Z,21.70
2022-08-28T12:30:21.755Z,22.95
2022-08-28T12:33:45.280Z,21.00
2022-08-28T12:35:35.465Z,23.38
2022-08-28T12:36:50.171Z,21.45
2022-08-28T12:38:27.841Z,23.60
2022-08-28T12:39:52.088Z,21.98
2022-08-28T12:41:12.514Z,25.50
2022-08-28T15:49:38.804Z,9.23
2022-08-28T15:50:50.247Z,8.70
2022-08-28T15:51:54.967Z,9.15
2022-08-28T15:52:58.279Z,9.57
2022-08-28T15:54:01.773Z,8.98
2022-08-28T15:55:06.322Z,9.85
2022-08-28T15:56:09.120Z,11.15
2022-08-28T15:57:12.366Z,11.75
2022-08-28T15:58:14.944Z,10.25
2022-08-28T15:59:18.839Z,8.80
2022-08-28T16:00:21.812Z,8.45
2022-08-28T16:01:25.225Z,8.73
2022-08-28T16:02:27.523Z,7.50
2022-08-28T16:03:30.793Z,7.45
2022-08-28T16:04:34.337Z,8.27
2022-08-28T16:05:39.717Z,8.35
2022-08-28T16:06:43.468Z,8.35
2022-08-28T16:07:46.756Z,8.18
2022-08-28T16:08:49.639Z,8.05
2022-08-28T16:09:53.422Z,8.50
2022-08-28T16:10:56.657Z,11.05
2022-08-28T16:11:59.884Z,8.82
2022-08-28T16:13:03.268Z,9.02
2022-08-28T16:14:06.440Z,7.70
2022-08-28T16:15:10.134Z,9.98
2022-08-28T16:16:13.986Z,8.90
2022-08-28T16:17:17.454Z,8.15
2022-08-28T16:18:20.101Z,9.98
2022-08-28T16:19:23.290Z,10.25
2022-08-28T16:20:27.391Z,9.77
2022-08-28T16:21:31.189Z,9.35
2022-08-28T16:22:34.129Z,8.95
2022-08-28T16:23:39.396Z,9.25
2022-08-28T16:24:45.424Z,7.95
2022-08-28T16:25:49.421Z,8.07
2022-08-28T16:26:51.683Z,7.55
2022-08-28T16:27:55.570Z,8.20
2022-08-28T16:29:06.918Z,8.85
2022-08-28T16:30:15.731Z,8.55
2022-08-28T16:31:20.716Z,8.07
2022-08-28T16:32:23.715Z,8.70
2022-08-28T16:33:27.935Z,9.07
2022-08-28T16:34:32.449Z,10.05
2022-08-28T16:35:39.464Z,8.63
2022-08-28T16:36:48.487Z,8.82
2022-08-28T16:37:50.950Z,7.97
2022-08-28T16:39:00.323Z,9.52
2022-08-28T16:40:08.989Z,9.05
2022-08-28T16:41:14.284Z,10.07
2022-08-28T16:42:17.137Z,9.00
2022-08-28T16:43:20.658Z,8.40
2022-08-28T16:44:25.416Z,10.05
2022-08-28T16:45:28.545Z,9.32
2022-08-28T16:46:31.398Z,10.15
2022-08-28T16:47:36.320Z,8.95
2022-08-28T16:48:39.406Z,8.95
2022-08-28T16:49:43.581Z,8.93
2022-08-28T16:50:47.239Z,8.70
2022-08-28T16:51:50.686Z,11.10
2022-08-28T16:52:52.976Z,8.27
2022-08-28T16:53:56.673Z,8.70
2022-08-28T16:54:59.620Z,11.27
2022-08-28T16:56:02.950Z,8.45
2022-08-28T16:57:05.368Z,7.75
2022-08-28T16:58:08.773Z,8.85
2022-08-28T16:59:11.274Z,8.95
2022-08-28T17:00:15.105Z,10.85
2022-08-28T17:01:17.324Z,8.50
2022-08-28T17:02:25.139Z,9.88
2022-08-28T17:03:29.879Z,9.30
2022-08-28T17:04:33.083Z,9.15
2022-08-28T17:05:36.362Z,9.70
2022-08-28T17:06:44.188Z,10.00
2022-08-28T17:07:48.338Z,9.98
2022-08-28T17:08:55.857Z,9.15
2022-08-28T17:10:00.973Z,8.38
2022-08-28T17:11:06.756Z,10.00
2022-08-28T17:12:15.410Z,11.13
2022-08-28T17:13:19.895Z,10.40
2022-08-28T17:14:24.485Z,9.80
2022-08-28T17:15:27.313Z,9.73
2022-08-28T17:16:32.481Z,11.43
2022-08-28T17:17:34.981Z,9.65
2022-08-28T17:18:40.443Z,9.73
2022-08-28T17:19:50.492Z,10.45
2022-08-28T17:21:11.911Z,9.60
2022-08-28T17:22:34.860Z,9.65
2022-08-28T17:23:37.326Z,10.25
2022-08-28T17:24:41.202Z,11.70
2022-08-28T17:25:44.484Z,9.68
2022-08-28T17:26:47.997Z,10.27
2022-08-28T17:27:50.672Z,10.18
2022-08-28T17:28:54.475Z,10.15
2022-08-28T17:29:56.903Z,10.20
2022-08-28T17:31:01.245Z,9.70
2022-08-28T17:32:05.379Z,10.10
2022-08-28T17:33:08.681Z,9.90
2022-08-28T17:34:11.274Z,11.43
2022-08-28T17:35:15.637Z,10.43
2022-08-28T17:36:32.757Z,10.48
2022-08-28T17:37:40.157Z,11.45
2022-08-28T17:38:42.501Z,11.30
2022-08-28T17:39:45.738Z,11.20
2022-08-28T17:40:48.070Z,9.65
2022-08-28T17:41:51.564Z,9.80
2022-08-28T17:42:53.820Z,10.52
2022-08-28T17:43:57.162Z,9.50
2022-08-28T17:44:59.669Z,11.80
2022-08-28T17:46:23.513Z,10.60
2022-08-28T17:47:30.846Z,12.93
2022-08-28T17:52:03.521Z,12.48
2022-08-28T17:53:10.087Z,12.07
2022-08-28T17:54:14.324Z,12.35
2022-08-28T17:55:17.949Z,12.25
2022-08-28T17:56:21.044Z,12.35
2022-08-28T17:57:41.504Z,11.50
2022-08-28T17:58:43.924Z,11.70
2022-08-28T17:59:47.479Z,12.75
2022-08-28T18:00:51.446Z,11.70
2022-08-28T18:01:54.773Z,11.05
2022-08-28T18:03:00.624Z,11.05
2022-08-28T18:04:03.417Z,12.38
2022-08-28T18:05:07.558Z,11.20
2022-08-28T18:06:10.418Z,12.35
2022-08-28T18:07:14.566Z,14.73
2022-08-28T18:08:19.593Z,13.38
2022-08-28T18:09:22.575Z,14.57
2022-08-28T18:10:26.278Z,16.60
2022-08-28T18:11:31.558Z,15.57
2022-08-28T18:12:35.957Z,15.25
2022-08-28T18:13:40.667Z,15.88
2022-08-28T18:15:09.755Z,16.50
2022-08-28T18:16:12.784Z,14.48
2022-08-28T18:17:24.080Z,15.88
2022-08-28T18:18:32.298Z,17.02
2022-08-28T18:19:42.860Z,16.23
2022-08-28T18:20:45.302Z,16.88
2022-08-28T18:22:13.381Z,16.42
2022-08-28T18:23:18.563Z,16.52
2022-08-28T18:24:20.980Z,17.40
2022-08-28T18:25:46.648Z,16.25
2022-08-28T18:26:54.483Z,14.70
2022-08-28T18:27:57.535Z,16.17
2022-08-28T18:29:00.903Z,16.92
2022-08-28T18:30:05.113Z,16.42
2022-08-28T18:31:07.911Z,16.95
2022-08-28T18:32:12.197Z,15.38
2022-08-28T18:33:15.966Z,18.75
2022-08-28T18:34:19.262Z,15.93
2022-08-28T18:35:31.867Z,15.52
2022-08-28T18:36:37.665Z,14.90
2022-08-28T18:37:39.870Z,19.67
2022-08-28T18:38:45.448Z,18.38
2022-08-28T18:39:47.930Z,18.63
2022-08-28T18:40:55.869Z,16.00
2022-08-28T18:41:58.645Z,16.15
2022-08-28T18:43:02.064Z,17.30
2022-08-28T18:44:04.832Z,16.20
2022-08-28T18:45:10.890Z,16.98
2022-08-28T18:46:14.409Z,15.13
2022-08-28T18:47:18.059Z,17.15
2022-08-28T18:48:20.615Z,17.05
2022-08-28T18:49:24.311Z,17.58
2022-08-28T18:50:29.242Z,16.58
2022-08-28T18:51:32.788Z,17.75
2022-08-28T18:52:36.586Z,16.60
2022-08-28T18:53:44.524Z,16.48
2022-08-28T18:54:49.623Z,15.70
2022-08-28T18:55:56.431Z,15.75
2022-08-28T18:57:04.309Z,15.05